»·PEaware :: DLH175 KFAT-KPDX

DLH175 :: KFAT-KPDX

FLIGHT INFORMATION

Flight Status: Arrived
Operator:
Lufthansa
More flights by this operator :: More flights under this callsign
Pilot: Gerson V. (30253)
Aircraft: BOEING 737-800
(B738)
More flights by this aircraft type
Origin: KFAT Fresno Yosemite Intl
United States
Destination: KPDX Portland Intl
United States
More flights between these airports :: More routes between these airports
Route: +OAL4 OAL J92 LMT OCITY3
File this flight plan on PilotEdge
Remarks:
Altitude:
(Current/Filed)
36,000ft
Speed:
(Current/Filed)
450kts
Departed: 01-Aug-20 08:41 AM
Arrived: 01-Aug-20 10:26 AM
Distance/Time
Traveled:
544nm/1:45
Distance/Time
To Go:
Arrived

Flight Plot

Page will automatically refresh every two minutes.


Map Options




Map Legend


Flown Route
Filed Route
Departure Airport
Arrival Airport
Navaid (VOR, NDB)
Fix

Horizontal Profiles

Position Reports

Time Latitude Longitude Heading Altitude Ground
Speed
01-Aug-20 08:11 36.771635 -119.717474 197 345ft 0kts
01-Aug-20 08:12 36.771635 -119.717474 197 345ft 0kts
01-Aug-20 08:13 36.771635 -119.717474 197 345ft 0kts
01-Aug-20 08:14 36.771635 -119.717474 197 345ft 0kts
01-Aug-20 08:15 36.771635 -119.717474 197 345ft 0kts
01-Aug-20 08:16 36.771635 -119.717474 197 345ft 0kts
01-Aug-20 08:17 36.771635 -119.717474 197 345ft 0kts
01-Aug-20 08:18 36.771635 -119.717474 197 345ft 0kts
01-Aug-20 08:19 36.771635 -119.717474 197 345ft 0kts
01-Aug-20 08:20 36.771635 -119.717474 197 345ft 0kts
01-Aug-20 08:21 36.771635 -119.717474 197 345ft 0kts
01-Aug-20 08:22 36.771635 -119.717474 197 345ft 0kts
01-Aug-20 08:23 36.771635 -119.717474 197 345ft 0kts
01-Aug-20 08:24 36.771635 -119.717474 197 345ft 0kts
01-Aug-20 08:25 36.771635 -119.717474 197 345ft 0kts
01-Aug-20 08:26 36.771711 -119.717443 195 345ft 2kts
01-Aug-20 08:27 36.772169 -119.717786 107 345ft 0kts
01-Aug-20 08:28 36.772169 -119.717785 107 345ft 0kts
01-Aug-20 08:29 36.772169 -119.717784 107 345ft 0kts
01-Aug-20 08:30 36.772168 -119.717783 107 345ft 0kts
01-Aug-20 08:31 36.772168 -119.717782 107 345ft 0kts
01-Aug-20 08:32 36.771859 -119.716568 107 345ft 7kts
01-Aug-20 08:33 36.771035 -119.714042 124 345ft 10kts
01-Aug-20 08:34 36.769434 -119.711191 125 345ft 10kts
01-Aug-20 08:35 36.767835 -119.708357 125 345ft 9kts
01-Aug-20 08:36 36.767626 -119.705579 81 345ft 11kts
01-Aug-20 08:37 36.768031 -119.703909 42 345ft 0kts
01-Aug-20 08:38 36.768365 -119.703563 27 345ft 5kts
01-Aug-20 08:39 36.769201 -119.704158 306 345ft 11kts
01-Aug-20 08:40 36.791715 -119.740567 317 562ft 192kts
01-Aug-20 08:41 36.841761 -119.755136 352 1221ft 183kts
01-Aug-20 08:42 36.893939 -119.763313 352 3030ft 206kts
01-Aug-20 08:43 36.949983 -119.746001 32 4834ft 220kts
01-Aug-20 08:44 36.997503 -119.696045 37 6822ft 230kts
01-Aug-20 08:45 37.046875 -119.641150 37 8834ft 243kts
01-Aug-20 08:46 37.101704 -119.582689 34 11231ft 301kts
01-Aug-20 08:47 37.177784 -119.516239 30 13939ft 351kts
01-Aug-20 08:48 37.258085 -119.439333 36 16950ft 374kts
01-Aug-20 08:49 37.340316 -119.353965 36 19966ft 390kts
01-Aug-20 08:50 37.426498 -119.264230 36 22252ft 415kts
01-Aug-20 08:51 37.515897 -119.171311 36 23797ft 415kts
01-Aug-20 08:52 37.604490 -119.079040 36 26629ft 410kts
01-Aug-20 08:53 37.691038 -118.988554 36 29619ft 395kts
01-Aug-20 08:54 37.774188 -118.901179 36 32237ft 385kts
01-Aug-20 08:55 37.856883 -118.814144 36 34074ft 390kts
01-Aug-20 08:56 37.941414 -118.725282 36 35487ft 401kts
01-Aug-20 08:57 38.004435 -118.604479 73 36004ft 439kts
01-Aug-20 08:58 38.007585 -118.444408 95 36004ft 471kts
01-Aug-20 08:59 37.995609 -118.276471 94 36000ft 482kts
01-Aug-20 09:00 38.000216 -118.108232 74 36000ft 481kts
01-Aug-20 09:01 38.070896 -117.967854 36 35982ft 473kts
01-Aug-20 09:02 38.191371 -117.945935 333 36104ft 445kts
01-Aug-20 09:03 38.284620 -118.047295 308 36007ft 443kts
01-Aug-20 09:04 38.358432 -118.171141 304 35999ft 437kts
01-Aug-20 09:05 38.437065 -118.288953 310 36000ft 438kts
01-Aug-20 09:06 38.522690 -118.400514 313 36000ft 439kts
01-Aug-20 09:07 38.610686 -118.509137 313 35999ft 439kts
01-Aug-20 09:08 38.698846 -118.617315 313 36000ft 439kts
01-Aug-20 09:09 38.786918 -118.725286 314 36000ft 439kts
01-Aug-20 09:10 38.875508 -118.833838 314 36000ft 439kts
01-Aug-20 09:11 38.963860 -118.942049 314 36000ft 439kts
01-Aug-20 09:12 39.052338 -119.050390 314 36000ft 439kts
01-Aug-20 09:13 39.139866 -119.160233 313 36000ft 439kts
01-Aug-20 09:14 39.226999 -119.270648 313 36000ft 439kts
01-Aug-20 09:15 39.314203 -119.381199 313 36000ft 439kts
01-Aug-20 09:16 39.401363 -119.491655 313 35999ft 439kts
01-Aug-20 09:17 39.488816 -119.602435 313 36000ft 439kts
01-Aug-20 09:18 39.581883 -119.704651 324 36001ft 443kts
01-Aug-20 09:19 39.688132 -119.785816 329 36000ft 445kts
01-Aug-20 09:20 39.799136 -119.857790 329 35999ft 445kts
01-Aug-20 09:21 39.906881 -119.937075 326 36000ft 444kts
01-Aug-20 09:22 40.013082 -120.018979 326 35999ft 443kts
01-Aug-20 09:23 40.119371 -120.101241 326 36000ft 443kts
01-Aug-20 09:24 40.225613 -120.183472 326 36000ft 443kts
01-Aug-20 09:25 40.331994 -120.265792 326 36000ft 444kts
01-Aug-20 09:26 40.437657 -120.347536 326 36000ft 444kts
01-Aug-20 09:27 40.544574 -120.430230 326 36000ft 444kts
01-Aug-20 09:28 40.650991 -120.512517 326 36000ft 444kts
01-Aug-20 09:29 40.757503 -120.594855 326 36000ft 444kts
01-Aug-20 09:30 40.863936 -120.677110 326 36000ft 444kts
01-Aug-20 09:31 40.970820 -120.759693 327 35999ft 444kts
01-Aug-20 09:32 41.077540 -120.842125 327 36000ft 444kts
01-Aug-20 09:33 41.184249 -120.924542 327 35747ft 448kts
01-Aug-20 09:34 41.290888 -121.006845 327 35337ft 432kts
01-Aug-20 09:35 41.394792 -121.086789 327 35982ft 438kts
01-Aug-20 09:36 41.502352 -121.169814 327 36000ft 449kts
01-Aug-20 09:37 41.607462 -121.257143 323 35999ft 443kts
01-Aug-20 09:38 41.709404 -121.348687 323 36000ft 442kts
01-Aug-20 09:39 41.812597 -121.438277 325 36000ft 443kts
01-Aug-20 09:40 41.918739 -121.524505 326 36000ft 443kts
01-Aug-20 09:41 42.024485 -121.610156 325 36000ft 443kts
01-Aug-20 09:42 42.129447 -121.697491 325 36000ft 443kts
01-Aug-20 09:43 42.239845 -121.772911 334 35915ft 448kts
01-Aug-20 09:45 42.355781 -121.834167 336 35395ft 447kts
01-Aug-20 09:46 42.472107 -121.892991 336 34694ft 444kts
01-Aug-20 09:47 42.588657 -121.951699 336 33995ft 448kts
01-Aug-20 09:48 42.705216 -122.010387 336 33227ft 447kts
01-Aug-20 09:49 42.822961 -122.069699 336 32428ft 451kts
01-Aug-20 09:50 42.940304 -122.128775 336 31629ft 449kts
01-Aug-20 09:51 43.058355 -122.188222 336 30832ft 453kts
01-Aug-20 09:52 43.176767 -122.247812 336 30030ft 450kts
01-Aug-20 09:53 43.293464 -122.306411 336 29231ft 445kts
01-Aug-20 09:54 43.408852 -122.365173 336 28430ft 439kts
01-Aug-20 09:55 43.522752 -122.424469 336 27627ft 433kts
01-Aug-20 09:56 43.634332 -122.482861 336 26830ft 428kts
01-Aug-20 09:57 43.745367 -122.541101 336 26033ft 422kts
01-Aug-20 09:58 43.854831 -122.598391 336 25327ft 418kts
01-Aug-20 09:59 43.962926 -122.654831 336 24627ft 413kts
01-Aug-20 10:00 44.069920 -122.710556 336 24118ft 408kts
01-Aug-20 10:01 44.179513 -122.751933 353 23780ft 416kts
01-Aug-20 10:01 44.275849 -122.745461 1 22969ft 414kts
01-Aug-20 10:03 44.408970 -122.729908 1 21450ft 407kts
01-Aug-20 10:04 44.520685 -122.718196 0 19949ft 398kts
01-Aug-20 10:04 44.611217 -122.709090 0 18691ft 377kts
01-Aug-20 10:05 44.713245 -122.698396 0 17248ft 361kts
01-Aug-20 10:07 44.827066 -122.686143 0 15534ft 327kts
01-Aug-20 10:07 44.898528 -122.677636 0 15013ft 299kts
01-Aug-20 10:08 44.980201 -122.670328 358 14408ft 277kts
01-Aug-20 10:09 45.052319 -122.662465 359 13226ft 251kts
01-Aug-20 10:10 45.120487 -122.654377 359 11719ft 239kts
01-Aug-20 10:11 45.185278 -122.646451 359 10216ft 229kts
01-Aug-20 10:12 45.245375 -122.620385 36 8701ft 239kts
01-Aug-20 10:13 45.282778 -122.541864 56 7220ft 237kts
01-Aug-20 10:14 45.315617 -122.462931 56 5937ft 223kts
01-Aug-20 10:15 45.345954 -122.388941 56 5072ft 208kts
01-Aug-20 10:16 45.374930 -122.319074 56 5000ft 205kts
01-Aug-20 10:17 45.409090 -122.255255 30 4750ft 208kts
01-Aug-20 10:18 45.459475 -122.259798 325 3727ft 185kts
01-Aug-20 10:19 45.484618 -122.316034 298 3384ft 149kts
01-Aug-20 10:20 45.504737 -122.366472 302 3116ft 146kts
01-Aug-20 10:21 45.524777 -122.415510 298 2414ft 141kts
01-Aug-20 10:22 45.543597 -122.464332 298 1685ft 139kts
01-Aug-20 10:23 45.562301 -122.512288 299 955ft 138kts
01-Aug-20 10:24 45.580904 -122.559967 299 209ft 136kts
01-Aug-20 10:25 45.590554 -122.584697 299 39ft 8kts
01-Aug-20 10:26 45.590731 -122.587392 256 39ft 6kts
01-Aug-20 10:27 45.590454 -122.590132 253 39ft 6kts

Navigation Log

Ident Type
Flight plan parsing failed, navigation log unavailable